createdAt,value
2017-12-06T00:00:36.816Z,19.30
2017-12-06T00:01:36.832Z,21.40
2017-12-06T00:02:36.850Z,19.30
2017-12-06T00:03:36.868Z,20.20
2017-12-06T00:04:36.886Z,17.80
2017-12-06T00:05:36.903Z,18.70
2017-12-06T00:06:36.922Z,21.00
2017-12-06T00:07:36.939Z,19.00
2017-12-06T00:08:36.956Z,17.70
2017-12-06T00:09:36.974Z,17.90
2017-12-06T00:10:36.995Z,18.80
2017-12-06T00:11:37.009Z,19.30
2017-12-06T00:12:37.028Z,18.40
2017-12-06T00:13:37.046Z,17.90
2017-12-06T00:14:37.063Z,19.00
2017-12-06T00:15:37.080Z,18.00
2017-12-06T00:16:37.096Z,18.80
2017-12-06T00:17:37.121Z,19.00
2017-12-06T00:18:37.135Z,18.40
2017-12-06T00:19:37.150Z,17.10
2017-12-06T00:20:37.167Z,19.30
2017-12-06T00:21:37.185Z,17.40
2017-12-06T00:22:37.203Z,18.40
2017-12-06T00:23:37.221Z,18.40
2017-12-06T00:24:37.239Z,18.50
2017-12-06T00:25:37.257Z,18.40
2017-12-06T00:26:37.275Z,18.20
2017-12-06T00:27:37.290Z,19.00
2017-12-06T00:28:37.560Z,21.30
2017-12-06T00:29:37.369Z,18.40
2017-12-06T00:30:37.346Z,18.70
2017-12-06T00:31:37.362Z,18.50
2017-12-06T00:32:37.380Z,17.70
2017-12-06T00:33:37.397Z,18.10
2017-12-06T00:34:37.416Z,18.70
2017-12-06T00:35:37.432Z,17.60
2017-12-06T00:36:37.451Z,18.70
2017-12-06T00:37:37.475Z,18.20
2017-12-06T00:38:37.487Z,19.40
2017-12-06T00:39:37.503Z,17.10
2017-12-06T00:40:37.520Z,18.00
2017-12-06T00:41:37.538Z,18.70
2017-12-06T00:42:37.558Z,18.10
2017-12-06T00:43:37.573Z,17.20
2017-12-06T00:44:37.592Z,18.70
2017-12-06T00:45:37.609Z,17.90
2017-12-06T00:46:37.626Z,18.10
2017-12-06T00:47:37.644Z,17.80
2017-12-06T00:48:37.662Z,18.20
2017-12-06T00:49:37.679Z,16.90
2017-12-06T00:50:37.699Z,17.70
2017-12-06T00:51:37.714Z,17.00
2017-12-06T00:52:37.733Z,17.70
2017-12-06T00:53:37.750Z,17.60
2017-12-06T00:54:37.769Z,18.20
2017-12-06T00:55:37.785Z,17.40
2017-12-06T00:56:37.804Z,17.70
2017-12-06T00:57:37.820Z,17.60
2017-12-06T00:58:37.839Z,17.70
2017-12-06T00:59:37.856Z,17.90
2017-12-06T01:00:37.874Z,18.80
2017-12-06T01:01:37.954Z,17.70
2017-12-06T01:02:37.910Z,17.30
2017-12-06T01:03:37.926Z,17.40
2017-12-06T01:04:37.946Z,18.10
2017-12-06T01:05:37.963Z,18.70
2017-12-06T01:06:37.980Z,18.20
2017-12-06T01:07:37.997Z,18.90
2017-12-06T01:08:38.014Z,18.00
2017-12-06T01:09:38.032Z,18.10
2017-12-06T01:10:38.051Z,20.30
2017-12-06T01:11:38.067Z,17.80
2017-12-06T01:12:38.086Z,18.30
2017-12-06T01:13:38.110Z,18.30
2017-12-06T01:14:38.122Z,17.50
2017-12-06T01:15:38.138Z,17.70
2017-12-06T01:16:38.156Z,17.40
2017-12-06T01:17:38.173Z,18.70
2017-12-06T01:18:38.191Z,18.20
2017-12-06T01:19:38.208Z,18.80
2017-12-06T01:20:38.226Z,18.10
2017-12-06T01:21:38.243Z,19.00
2017-12-06T01:22:38.262Z,18.50
2017-12-06T01:23:38.278Z,18.30
2017-12-06T01:24:38.296Z,19.50
2017-12-06T01:25:38.315Z,19.00
2017-12-06T01:26:38.337Z,19.40
2017-12-06T01:27:38.351Z,19.60
2017-12-06T01:28:38.367Z,19.50
2017-12-06T01:29:38.384Z,19.20
2017-12-06T01:30:38.402Z,19.90
2017-12-06T01:31:38.420Z,20.00
2017-12-06T01:32:38.437Z,18.90
2017-12-06T01:33:38.454Z,20.30
2017-12-06T01:34:38.473Z,19.30
2017-12-06T01:35:38.490Z,20.00
2017-12-06T01:36:38.508Z,19.90
2017-12-06T01:37:38.525Z,20.90
2017-12-06T01:38:38.543Z,19.90
2017-12-06T01:39:38.560Z,20.50
2017-12-06T01:40:38.577Z,19.60
2017-12-06T01:41:38.596Z,20.70
2017-12-06T01:42:38.614Z,19.30
2017-12-06T01:43:38.631Z,19.80
2017-12-06T01:44:38.647Z,20.20
2017-12-06T01:45:38.667Z,21.40
2017-12-06T01:46:38.688Z,19.80
2017-12-06T01:47:38.700Z,19.60
2017-12-06T01:48:38.719Z,20.90
2017-12-06T01:49:38.736Z,19.70
2017-12-06T01:50:38.757Z,19.60
2017-12-06T01:51:38.770Z,20.70
2017-12-06T01:52:38.787Z,19.60
2017-12-06T01:53:38.807Z,19.80
2017-12-06T01:54:38.824Z,20.00
2017-12-06T01:55:38.842Z,19.80
2017-12-06T01:56:38.860Z,19.20
2017-12-06T01:57:38.876Z,20.60
2017-12-06T01:58:38.895Z,20.30
2017-12-06T01:59:38.911Z,20.00
2017-12-06T02:00:38.929Z,20.20
2017-12-06T02:01:38.954Z,20.20
2017-12-06T02:02:38.964Z,19.80
2017-12-06T02:03:38.981Z,20.10
2017-12-06T02:04:39.006Z,20.10
2017-12-06T02:05:39.018Z,20.00
2017-12-06T02:06:39.034Z,19.40
2017-12-06T02:07:39.052Z,20.00
2017-12-06T02:08:39.077Z,18.70
2017-12-06T02:09:39.087Z,19.30
2017-12-06T02:10:39.105Z,18.40
2017-12-06T02:11:39.123Z,19.80
2017-12-06T02:12:39.141Z,19.20
2017-12-06T02:13:39.157Z,19.60
2017-12-06T02:14:39.176Z,19.60
2017-12-06T02:15:39.192Z,20.30
2017-12-06T02:16:39.216Z,19.90
2017-12-06T02:17:39.228Z,20.70
2017-12-06T02:18:39.245Z,20.70
2017-12-06T02:19:39.262Z,20.40
2017-12-06T02:20:39.281Z,21.00
2017-12-06T02:21:39.299Z,19.60
2017-12-06T02:22:39.316Z,20.20
2017-12-06T02:23:39.434Z,20.00
2017-12-06T02:24:39.351Z,19.40
2017-12-06T02:25:39.368Z,22.00
2017-12-06T02:26:39.388Z,21.50
2017-12-06T02:27:39.403Z,20.30
2017-12-06T02:28:39.421Z,20.00
2017-12-06T02:29:39.439Z,20.60
2017-12-06T02:30:39.458Z,21.10
2017-12-06T02:31:39.474Z,21.00
2017-12-06T02:32:39.492Z,20.80
2017-12-06T02:33:39.509Z,22.10
2017-12-06T02:34:39.527Z,20.70
2017-12-06T02:35:39.544Z,20.50
2017-12-06T02:36:39.568Z,21.50
2017-12-06T02:37:39.608Z,22.30
2017-12-06T02:38:39.624Z,22.30
2017-12-06T02:39:39.619Z,21.70
2017-12-06T02:40:39.631Z,23.20
2017-12-06T02:41:39.651Z,22.00
2017-12-06T02:42:39.667Z,23.00
2017-12-06T02:43:39.684Z,22.30
2017-12-06T02:44:39.703Z,22.70
2017-12-06T02:45:39.722Z,23.30
2017-12-06T02:46:39.742Z,23.70
2017-12-06T02:47:39.758Z,23.50
2017-12-06T02:48:39.771Z,23.70
2017-12-06T02:49:39.789Z,23.00
2017-12-06T02:50:39.809Z,21.60
2017-12-06T02:51:39.825Z,24.80
2017-12-06T02:52:39.844Z,24.70
2017-12-06T02:53:39.860Z,22.40
2017-12-06T02:54:39.877Z,23.90
2017-12-06T02:55:39.894Z,24.40
2017-12-06T02:56:39.915Z,23.50
2017-12-06T02:57:39.930Z,24.20
2017-12-06T02:58:39.948Z,24.60
2017-12-06T02:59:39.965Z,26.10
2017-12-06T03:00:39.982Z,25.00
2017-12-06T03:01:40.001Z,25.10
2017-12-06T03:02:40.020Z,25.50
2017-12-06T03:03:40.034Z,25.00
2017-12-06T03:04:40.051Z,27.20
2017-12-06T03:05:40.071Z,25.40
2017-12-06T03:06:40.088Z,26.00
2017-12-06T03:07:40.106Z,25.70
2017-12-06T03:08:40.122Z,26.20
2017-12-06T03:09:40.140Z,26.30
2017-12-06T03:10:40.158Z,27.10
2017-12-06T03:11:40.176Z,27.20
2017-12-06T03:12:40.193Z,27.00
2017-12-06T03:13:40.217Z,26.80
2017-12-06T03:14:40.229Z,26.50
2017-12-06T03:15:40.245Z,26.70
2017-12-06T03:16:40.262Z,27.50
2017-12-06T03:17:40.281Z,27.40
2017-12-06T03:18:40.299Z,27.60
2017-12-06T03:19:40.317Z,25.70
2017-12-06T03:20:40.334Z,26.80
2017-12-06T03:21:40.355Z,27.70
2017-12-06T03:22:40.369Z,27.70
2017-12-06T03:23:40.385Z,26.10
2017-12-06T03:24:40.404Z,27.70
2017-12-06T03:25:40.421Z,27.10
2017-12-06T03:26:40.439Z,28.20
2017-12-06T03:27:40.456Z,26.70
2017-12-06T03:28:40.474Z,27.90
2017-12-06T03:29:40.491Z,26.60
2017-12-06T03:30:40.511Z,27.00
2017-12-06T03:31:40.527Z,28.30
2017-12-06T03:32:40.543Z,26.90
2017-12-06T03:33:40.563Z,26.00
2017-12-06T03:34:40.583Z,28.00
2017-12-06T03:35:40.596Z,26.80
2017-12-06T03:36:40.614Z,26.60
2017-12-06T03:37:40.632Z,26.90
2017-12-06T03:38:40.649Z,26.90
2017-12-06T03:39:40.667Z,26.20
2017-12-06T03:40:40.685Z,27.30
2017-12-06T03:41:40.701Z,26.90
2017-12-06T03:42:40.723Z,27.00
2017-12-06T03:43:40.741Z,26.80
2017-12-06T03:44:40.754Z,26.90
2017-12-06T03:45:40.773Z,26.70
2017-12-06T03:46:40.790Z,27.20
2017-12-06T03:47:40.808Z,27.80
2017-12-06T03:48:40.824Z,28.20
2017-12-06T03:49:40.843Z,26.00
2017-12-06T03:50:40.860Z,26.70
2017-12-06T03:51:40.878Z,25.80
2017-12-06T03:52:40.894Z,26.20
2017-12-06T03:53:40.912Z,27.60
2017-12-06T03:54:40.931Z,26.60
2017-12-06T03:55:40.947Z,27.70
2017-12-06T03:56:40.965Z,27.40
2017-12-06T03:57:40.982Z,26.90
2017-12-06T03:58:41.003Z,26.80
2017-12-06T03:59:41.018Z,26.30
2017-12-06T04:00:41.034Z,27.20
2017-12-06T04:01:41.052Z,24.90
2017-12-06T04:02:41.072Z,27.40
2017-12-06T04:03:41.087Z,26.90
2017-12-06T04:04:41.105Z,26.70
2017-12-06T04:05:41.122Z,26.60
2017-12-06T04:06:41.142Z,27.60
2017-12-06T04:07:41.158Z,27.60
2017-12-06T04:08:41.176Z,28.10
2017-12-06T04:09:41.200Z,26.30
2017-12-06T04:10:41.212Z,28.00
2017-12-06T04:11:41.229Z,25.30
2017-12-06T04:12:41.246Z,27.00
2017-12-06T04:13:41.267Z,26.60
2017-12-06T04:14:41.282Z,27.10
2017-12-06T04:15:41.299Z,26.50
2017-12-06T04:16:41.317Z,26.70
2017-12-06T04:17:41.362Z,25.70
2017-12-06T04:18:41.356Z,25.20
2017-12-06T04:19:41.370Z,25.90
2017-12-06T04:20:41.386Z,26.20
2017-12-06T04:21:41.404Z,26.10
2017-12-06T04:22:41.422Z,25.30
2017-12-06T04:23:41.441Z,25.60
2017-12-06T04:24:41.458Z,25.80
2017-12-06T04:25:41.475Z,25.20
2017-12-06T04:26:41.494Z,25.70
2017-12-06T04:27:41.511Z,24.40
2017-12-06T04:28:41.528Z,23.80
2017-12-06T04:29:41.548Z,25.80
2017-12-06T04:30:41.563Z,24.30
2017-12-06T04:31:41.580Z,25.70
2017-12-06T04:32:41.598Z,24.30
2017-12-06T04:33:41.616Z,25.40
2017-12-06T04:34:41.635Z,25.10
2017-12-06T04:35:41.654Z,23.60
2017-12-06T04:36:41.668Z,26.10
2017-12-06T04:37:41.686Z,24.30
2017-12-06T04:38:41.705Z,24.30
2017-12-06T04:39:41.721Z,24.80
2017-12-06T04:40:41.740Z,25.60
2017-12-06T04:41:41.757Z,23.60
2017-12-06T04:42:41.776Z,23.50
2017-12-06T04:43:41.793Z,24.10
2017-12-06T04:44:41.809Z,24.00
2017-12-06T04:45:41.826Z,22.90
2017-12-06T04:46:41.846Z,25.00
2017-12-06T04:47:41.862Z,23.70
2017-12-06T04:48:41.880Z,22.90
2017-12-06T04:49:41.897Z,24.80
2017-12-06T04:50:41.916Z,23.60
2017-12-06T04:51:41.932Z,23.20
2017-12-06T04:52:41.951Z,23.00
2017-12-06T04:53:41.968Z,23.60
2017-12-06T04:54:41.986Z,23.10
2017-12-06T04:55:42.003Z,22.90
2017-12-06T04:56:42.020Z,23.60
2017-12-06T04:57:42.039Z,23.30
2017-12-06T04:58:42.056Z,24.60
2017-12-06T04:59:42.074Z,24.70
2017-12-06T05:00:42.091Z,23.70
2017-12-06T05:01:42.108Z,24.60
2017-12-06T05:02:42.126Z,24.30
2017-12-06T05:03:42.143Z,23.60
2017-12-06T05:04:42.161Z,25.60
2017-12-06T05:05:42.179Z,24.00
2017-12-06T05:06:42.201Z,24.30
2017-12-06T05:07:42.214Z,24.60
2017-12-06T05:08:42.233Z,24.80
2017-12-06T05:09:42.251Z,25.10
2017-12-06T05:10:42.269Z,24.60
2017-12-06T05:11:42.284Z,25.40
2017-12-06T05:12:42.303Z,26.30
2017-12-06T05:13:42.321Z,25.40
2017-12-06T05:14:42.338Z,26.00
2017-12-06T05:15:42.354Z,24.40
2017-12-06T05:16:42.374Z,25.10
2017-12-06T05:17:42.390Z,24.90
2017-12-06T05:18:42.409Z,25.40
2017-12-06T05:19:42.424Z,25.40
2017-12-06T05:20:42.444Z,26.30
2017-12-06T05:21:42.461Z,25.10
2017-12-06T05:22:42.480Z,26.70
2017-12-06T05:23:42.496Z,24.90
2017-12-06T05:24:42.513Z,25.60
2017-12-06T05:25:42.533Z,27.30
2017-12-06T05:26:42.549Z,25.90
2017-12-06T05:27:42.567Z,26.80
2017-12-06T05:28:42.587Z,25.70
2017-12-06T05:29:42.604Z,25.40
2017-12-06T05:30:42.627Z,25.50
2017-12-06T05:31:42.635Z,26.20
2017-12-06T05:32:42.653Z,25.30
2017-12-06T05:33:42.672Z,25.70
2017-12-06T05:34:42.697Z,24.20
2017-12-06T05:35:42.707Z,24.80
2017-12-06T05:36:42.724Z,26.20
2017-12-06T05:37:42.743Z,24.70
2017-12-06T05:38:42.761Z,26.20
2017-12-06T05:39:42.776Z,26.10
2017-12-06T05:40:42.794Z,26.10
2017-12-06T05:41:42.816Z,27.10
2017-12-06T05:42:42.831Z,26.80
2017-12-06T05:43:42.847Z,26.10
2017-12-06T05:44:42.868Z,28.20
2017-12-06T05:45:42.884Z,25.90
2017-12-06T05:46:42.901Z,25.60
2017-12-06T05:47:42.918Z,25.90
2017-12-06T05:48:42.935Z,25.70
2017-12-06T05:49:42.960Z,26.50
2017-12-06T05:50:42.972Z,25.50
2017-12-06T05:51:43.089Z,26.50
2017-12-06T05:52:43.007Z,26.80
2017-12-06T05:53:43.024Z,27.10
2017-12-06T05:54:43.042Z,27.50
2017-12-06T05:55:43.058Z,25.90
2017-12-06T05:56:43.077Z,26.30
2017-12-06T05:57:43.094Z,27.00
2017-12-06T05:58:43.114Z,26.90
2017-12-06T05:59:43.129Z,26.10
2017-12-06T06:00:43.146Z,26.90
2017-12-06T06:01:43.165Z,26.50
2017-12-06T06:02:43.184Z,27.00
2017-12-06T06:03:43.199Z,26.70
2017-12-06T06:04:43.217Z,27.30
2017-12-06T06:05:43.235Z,28.40
2017-12-06T06:06:43.254Z,27.60
2017-12-06T06:07:43.271Z,25.80
2017-12-06T06:08:43.288Z,27.00
2017-12-06T06:09:43.305Z,27.10
2017-12-06T06:10:43.325Z,27.20
2017-12-06T06:11:43.340Z,27.40
2017-12-06T06:12:43.359Z,27.50
2017-12-06T06:13:43.376Z,27.70
2017-12-06T06:14:43.394Z,27.90
2017-12-06T06:15:43.411Z,27.90
2017-12-06T06:16:43.429Z,27.40
2017-12-06T06:17:43.446Z,26.00
2017-12-06T06:18:43.467Z,28.00
2017-12-06T06:19:43.482Z,28.00
2017-12-06T06:20:43.499Z,28.70
2017-12-06T06:21:43.518Z,26.80
2017-12-06T06:22:43.535Z,26.60
2017-12-06T06:23:43.555Z,25.70
2017-12-06T06:24:43.570Z,29.00
2017-12-06T06:25:43.588Z,26.50
2017-12-06T06:26:43.606Z,27.50
2017-12-06T06:27:43.624Z,26.70
2017-12-06T06:28:43.642Z,26.90
2017-12-06T06:29:43.663Z,25.10
2017-12-06T06:30:43.677Z,26.30
2017-12-06T06:31:43.728Z,25.80
2017-12-06T06:32:43.712Z,27.30
2017-12-06T06:33:43.729Z,25.70
2017-12-06T06:34:43.748Z,27.40
2017-12-06T06:35:43.765Z,26.20
2017-12-06T06:36:43.783Z,25.80
2017-12-06T06:37:43.801Z,26.30
2017-12-06T06:38:43.820Z,25.30
2017-12-06T06:39:43.835Z,26.10
2017-12-06T06:40:43.853Z,24.60
2017-12-06T06:41:43.871Z,27.20
2017-12-06T06:42:43.890Z,25.30
2017-12-06T06:43:43.906Z,26.40
2017-12-06T06:44:43.925Z,26.30
2017-12-06T06:45:43.943Z,26.30
2017-12-06T06:46:43.961Z,25.60
2017-12-06T06:47:43.978Z,26.40
2017-12-06T06:48:43.995Z,24.20
2017-12-06T06:49:44.014Z,24.80
2017-12-06T06:50:44.035Z,25.20
2017-12-06T06:51:44.048Z,24.50
2017-12-06T06:52:44.065Z,26.30
2017-12-06T06:53:44.084Z,23.80
2017-12-06T06:54:44.102Z,25.40
2017-12-06T06:55:44.120Z,23.80
2017-12-06T06:56:44.138Z,25.50
2017-12-06T06:57:44.214Z,25.70
2017-12-06T06:58:44.173Z,24.90
2017-12-06T06:59:44.191Z,25.00
2017-12-06T07:00:44.210Z,25.70
2017-12-06T07:01:44.227Z,25.00
2017-12-06T07:02:44.244Z,23.70
2017-12-06T07:03:44.264Z,23.20
2017-12-06T07:04:44.279Z,25.60
2017-12-06T07:05:44.298Z,24.30
2017-12-06T07:06:44.316Z,22.40
2017-12-06T07:07:44.333Z,23.90
2017-12-06T07:08:44.351Z,26.70
2017-12-06T07:09:44.367Z,24.70
2017-12-06T07:10:44.386Z,24.40
2017-12-06T07:11:44.414Z,23.40
2017-12-06T07:12:44.430Z,22.60
2017-12-06T07:13:44.440Z,22.80
2017-12-06T07:14:44.458Z,24.70
2017-12-06T07:15:44.475Z,22.80
2017-12-06T07:16:44.496Z,22.40
2017-12-06T07:17:44.510Z,20.70
2017-12-06T07:18:44.529Z,22.90
2017-12-06T07:19:44.549Z,24.40
2017-12-06T07:20:44.566Z,22.70
2017-12-06T07:21:44.582Z,21.10
2017-12-06T07:22:44.662Z,22.70
2017-12-06T07:23:44.623Z,20.80
2017-12-06T07:24:44.634Z,20.80
2017-12-06T07:25:44.654Z,20.90
2017-12-06T07:26:44.672Z,21.10
2017-12-06T07:27:44.688Z,22.10
2017-12-06T07:28:44.707Z,21.00
2017-12-06T07:29:44.724Z,21.40
2017-12-06T07:30:44.741Z,20.90
2017-12-06T07:31:44.760Z,21.30
2017-12-06T07:32:44.776Z,20.90
2017-12-06T07:33:44.796Z,20.40
2017-12-06T07:34:44.813Z,20.80
2017-12-06T07:35:44.831Z,21.20
2017-12-06T07:36:44.849Z,21.50
2017-12-06T07:37:44.866Z,21.50
2017-12-06T07:38:44.885Z,22.20
2017-12-06T07:39:44.902Z,21.90
2017-12-06T07:40:44.919Z,20.80
2017-12-06T07:41:44.937Z,20.90
2017-12-06T07:42:44.955Z,20.40
2017-12-06T07:43:44.972Z,21.40
2017-12-06T07:44:44.990Z,20.60
2017-12-06T07:45:45.008Z,19.80
2017-12-06T07:46:45.027Z,20.90
2017-12-06T07:47:45.044Z,21.50
2017-12-06T07:48:45.061Z,20.30
2017-12-06T07:49:45.081Z,19.60
2017-12-06T07:50:45.099Z,20.90
2017-12-06T07:51:45.115Z,21.10
2017-12-06T07:52:45.132Z,19.90
2017-12-06T07:53:45.151Z,20.20
2017-12-06T07:54:45.169Z,21.10
2017-12-06T07:55:45.186Z,21.10
2017-12-06T07:56:45.203Z,21.20
2017-12-06T07:57:45.222Z,20.40
2017-12-06T07:58:45.240Z,21.70
2017-12-06T07:59:45.258Z,20.00
2017-12-06T08:00:45.275Z,19.70
2017-12-06T08:01:45.294Z,19.90
2017-12-06T08:02:45.312Z,19.60
2017-12-06T08:03:45.363Z,20.40
2017-12-06T08:04:45.347Z,20.00
2017-12-06T08:05:45.366Z,20.40
2017-12-06T08:06:45.390Z,19.70
2017-12-06T08:07:45.402Z,18.50
2017-12-06T08:08:45.417Z,19.70
2017-12-06T08:09:45.460Z,18.70
2017-12-06T08:10:45.464Z,20.00
2017-12-06T08:11:45.471Z,19.50
2017-12-06T08:12:45.491Z,19.20
2017-12-06T08:13:45.508Z,18.90
2017-12-06T08:14:45.527Z,18.90
2017-12-06T08:15:45.543Z,18.10
2017-12-06T08:16:45.561Z,18.70
2017-12-06T08:17:45.580Z,18.40
2017-12-06T08:18:45.601Z,19.40
2017-12-06T08:19:45.616Z,17.70
2017-12-06T08:20:45.633Z,19.90
2017-12-06T08:21:45.652Z,18.00
2017-12-06T08:22:45.669Z,20.30
2017-12-06T08:23:45.688Z,18.10
2017-12-06T08:24:45.705Z,18.20
2017-12-06T08:25:45.802Z,18.20
2017-12-06T08:26:45.746Z,17.20
2017-12-06T08:27:45.759Z,17.80
2017-12-06T08:28:45.776Z,18.10
2017-12-06T08:29:45.801Z,18.00
2017-12-06T08:30:46.363Z,18.00
2017-12-06T08:31:45.831Z,17.40
2017-12-06T08:32:45.849Z,17.90
2017-12-06T08:33:45.871Z,16.50
2017-12-06T08:34:45.892Z,19.50
2017-12-06T08:35:45.908Z,17.70
2017-12-06T08:36:45.922Z,17.00
2017-12-06T08:37:45.939Z,17.10
2017-12-06T08:38:45.958Z,16.40
2017-12-06T08:39:45.975Z,17.20
2017-12-06T08:40:45.992Z,17.40
2017-12-06T08:41:46.011Z,17.00
2017-12-06T08:42:46.030Z,17.00
2017-12-06T08:43:46.146Z,17.00
2017-12-06T08:44:46.065Z,16.50
2017-12-06T08:45:46.083Z,17.00
2017-12-06T08:46:46.106Z,16.70
2017-12-06T08:47:46.144Z,15.70
2017-12-06T08:48:46.139Z,16.90
2017-12-06T08:49:46.155Z,16.40
2017-12-06T08:50:46.173Z,17.20
2017-12-06T08:51:46.189Z,16.60
2017-12-06T08:52:46.209Z,16.80
2017-12-06T08:53:46.227Z,15.20
2017-12-06T08:54:46.246Z,18.40
2017-12-06T08:55:46.262Z,16.20
2017-12-06T08:56:46.279Z,15.00
2017-12-06T08:57:46.302Z,15.30
2017-12-06T08:58:46.316Z,16.40
2017-12-06T08:59:46.333Z,15.60
2017-12-06T09:00:46.353Z,15.70
2017-12-06T09:01:46.371Z,16.10
2017-12-06T09:02:46.388Z,15.70
2017-12-06T09:03:46.406Z,16.10
2017-12-06T09:04:46.425Z,15.90
2017-12-06T09:05:46.442Z,16.00
2017-12-06T09:06:46.460Z,14.90
2017-12-06T09:07:46.477Z,15.30
2017-12-06T09:08:46.497Z,14.90
2017-12-06T09:09:46.515Z,14.70
2017-12-06T09:10:46.533Z,16.30
2017-12-06T09:11:46.550Z,15.20
2017-12-06T09:12:46.571Z,15.20
2017-12-06T09:13:46.587Z,15.00
2017-12-06T09:14:46.605Z,15.30
2017-12-06T09:15:46.622Z,14.90
2017-12-06T09:16:46.640Z,15.30
2017-12-06T09:17:46.659Z,14.10
2017-12-06T09:18:46.676Z,14.30
2017-12-06T09:19:46.693Z,14.70
2017-12-06T09:20:46.713Z,13.70
2017-12-06T09:21:46.732Z,14.30
2017-12-06T09:22:46.748Z,14.80
2017-12-06T09:23:46.766Z,14.60
2017-12-06T09:24:46.783Z,15.50
2017-12-06T09:25:46.802Z,14.40
2017-12-06T09:26:46.821Z,15.90
2017-12-06T09:27:46.842Z,14.80
2017-12-06T09:28:46.857Z,14.80
2017-12-06T09:29:46.874Z,15.70
2017-12-06T09:30:46.893Z,15.10
2017-12-06T09:31:46.911Z,14.90
2017-12-06T09:32:46.928Z,16.30
2017-12-06T09:33:46.947Z,13.60
2017-12-06T09:34:46.965Z,17.60
2017-12-06T09:35:46.984Z,15.30
2017-12-06T09:36:47.001Z,18.50
2017-12-06T09:37:47.020Z,15.10
2017-12-06T09:38:47.036Z,15.10
2017-12-06T09:39:47.054Z,15.40
2017-12-06T09:40:47.072Z,14.60
2017-12-06T09:41:47.090Z,14.50
2017-12-06T09:42:47.109Z,14.60
2017-12-06T09:43:47.127Z,13.70
2017-12-06T09:44:47.145Z,14.50
2017-12-06T09:45:47.166Z,14.60
2017-12-06T09:46:47.184Z,15.10
2017-12-06T09:47:47.199Z,15.80
2017-12-06T09:48:47.217Z,14.50
2017-12-06T09:49:47.236Z,14.00
2017-12-06T09:50:47.256Z,14.30
2017-12-06T09:51:47.271Z,14.80
2017-12-06T09:52:47.290Z,14.60
2017-12-06T09:53:47.308Z,15.20
2017-12-06T09:54:47.328Z,14.90
2017-12-06T09:55:47.344Z,15.30
2017-12-06T09:56:47.362Z,14.80
2017-12-06T09:57:47.381Z,14.00
2017-12-06T09:58:47.400Z,13.60
2017-12-06T09:59:47.417Z,15.60
2017-12-06T10:00:47.440Z,13.40
2017-12-06T10:01:47.454Z,14.40
2017-12-06T10:02:47.473Z,14.60
2017-12-06T10:03:47.490Z,14.60
2017-12-06T10:04:47.510Z,13.50
2017-12-06T10:05:47.528Z,14.40
2017-12-06T10:06:47.545Z,15.00
2017-12-06T10:07:47.562Z,13.90
2017-12-06T10:08:47.580Z,15.00
2017-12-06T10:09:47.599Z,15.10
2017-12-06T10:10:47.616Z,17.00
2017-12-06T10:11:47.634Z,15.70
2017-12-06T10:12:47.652Z,13.90
2017-12-06T10:13:47.672Z,14.20
2017-12-06T10:14:47.689Z,14.00
2017-12-06T10:15:47.707Z,13.30
2017-12-06T10:16:47.726Z,13.40
2017-12-06T10:17:47.744Z,13.20
2017-12-06T10:18:47.763Z,13.40
2017-12-06T10:19:47.779Z,13.70
2017-12-06T10:20:47.797Z,12.80
2017-12-06T10:21:47.817Z,13.60
2017-12-06T10:22:47.834Z,12.40
2017-12-06T10:23:47.851Z,12.60
2017-12-06T10:24:47.870Z,14.20
2017-12-06T10:25:47.888Z,13.90
2017-12-06T10:26:47.908Z,12.90
2017-12-06T10:27:47.924Z,12.70
2017-12-06T10:28:47.943Z,11.80
2017-12-06T10:29:47.960Z,13.10
2017-12-06T10:30:48.030Z,13.20
2017-12-06T10:31:47.996Z,15.40
2017-12-06T10:32:48.021Z,12.60
2017-12-06T10:33:48.033Z,12.90
2017-12-06T10:34:48.051Z,11.00
2017-12-06T10:35:48.075Z,12.20
2017-12-06T10:36:48.088Z,10.90
2017-12-06T10:37:48.106Z,12.30
2017-12-06T10:38:48.125Z,10.80
2017-12-06T10:39:48.143Z,12.00
2017-12-06T10:40:48.160Z,11.60
2017-12-06T10:41:48.179Z,11.20
2017-12-06T10:42:48.196Z,11.30
2017-12-06T10:43:48.215Z,11.50
2017-12-06T10:44:48.233Z,10.50
2017-12-06T10:45:48.252Z,11.50
2017-12-06T10:46:48.269Z,12.20
2017-12-06T10:47:48.286Z,11.10
2017-12-06T10:48:48.306Z,11.30
2017-12-06T10:49:48.324Z,11.40
2017-12-06T10:50:48.341Z,12.20
2017-12-06T10:51:48.511Z,11.00
2017-12-06T10:52:48.379Z,10.00
2017-12-06T10:53:48.396Z,10.90
2017-12-06T10:54:48.416Z,10.70
2017-12-06T10:55:48.434Z,11.10
2017-12-06T10:56:48.452Z,11.70
2017-12-06T10:57:48.470Z,12.30
2017-12-06T10:58:48.488Z,11.40
2017-12-06T10:59:48.506Z,11.70
2017-12-06T11:00:48.524Z,11.80
2017-12-06T11:01:48.542Z,11.20
2017-12-06T11:02:48.566Z,10.60
2017-12-06T11:03:48.578Z,11.20
2017-12-06T11:04:48.597Z,10.80
2017-12-06T11:05:48.616Z,10.90
2017-12-06T11:06:48.634Z,12.30
2017-12-06T11:07:48.652Z,11.10
2017-12-06T11:08:48.669Z,12.30
2017-12-06T11:09:48.689Z,13.20
2017-12-06T11:10:48.707Z,11.40
2017-12-06T11:11:48.927Z,11.60
2017-12-06T11:12:48.743Z,12.70
2017-12-06T11:13:48.762Z,12.40
2017-12-06T11:14:48.782Z,12.30
2017-12-06T11:15:48.799Z,26.80
2017-12-06T11:16:48.819Z,16.10
2017-12-06T11:17:48.836Z,14.60
2017-12-06T11:18:48.854Z,11.80
2017-12-06T11:19:48.873Z,10.60
2017-12-06T11:20:48.891Z,11.60
2017-12-06T11:21:48.909Z,10.80
2017-12-06T11:22:48.930Z,11.10
2017-12-06T11:23:48.945Z,10.70
2017-12-06T11:24:48.964Z,11.20
2017-12-06T11:25:48.984Z,12.30
2017-12-06T11:26:49.003Z,11.70
2017-12-06T11:27:49.020Z,11.90
2017-12-06T11:28:49.038Z,11.80
2017-12-06T11:29:49.057Z,12.70
2017-12-06T11:30:49.080Z,12.40
2017-12-06T11:31:49.093Z,12.00
2017-12-06T11:32:49.164Z,12.80
2017-12-06T11:33:49.130Z,13.00
2017-12-06T11:34:49.149Z,12.80
2017-12-06T11:35:49.167Z,12.60
2017-12-06T11:36:49.186Z,11.70
2017-12-06T11:37:49.205Z,12.90
2017-12-06T11:38:49.222Z,12.90
2017-12-06T11:39:49.243Z,12.20
2017-12-06T11:40:49.269Z,12.70
2017-12-06T11:41:49.279Z,12.80
2017-12-06T11:42:49.297Z,12.00
2017-12-06T11:43:49.314Z,13.20
2017-12-06T11:44:49.338Z,14.20
2017-12-06T11:45:49.352Z,12.30
2017-12-06T11:46:49.371Z,13.40
2017-12-06T11:47:49.387Z,15.30
2017-12-06T11:48:49.406Z,14.70
2017-12-06T11:49:49.428Z,14.10
2017-12-06T11:50:49.444Z,12.60
2017-12-06T11:51:49.652Z,14.20
2017-12-06T11:52:49.483Z,13.60
2017-12-06T11:53:49.500Z,15.50
2017-12-06T11:54:49.518Z,13.20
2017-12-06T11:55:49.535Z,12.50
2017-12-06T11:56:49.558Z,12.30
2017-12-06T11:57:49.574Z,12.80
2017-12-06T11:58:49.593Z,12.20
2017-12-06T11:59:49.612Z,13.50
2017-12-06T12:00:49.633Z,12.80
2017-12-06T12:01:49.647Z,13.30
2017-12-06T12:02:49.668Z,12.60
2017-12-06T12:03:49.685Z,13.30
2017-12-06T12:04:49.702Z,13.40
2017-12-06T12:05:49.720Z,12.10
2017-12-06T12:06:49.738Z,12.50
2017-12-06T12:07:49.758Z,12.00
2017-12-06T12:08:49.775Z,11.60
2017-12-06T12:09:49.795Z,12.10
2017-12-06T12:10:49.812Z,11.60
2017-12-06T12:11:49.830Z,12.50
2017-12-06T12:12:49.848Z,13.10
2017-12-06T12:13:49.868Z,11.60
2017-12-06T12:14:49.886Z,13.20
2017-12-06T12:15:49.904Z,12.70
2017-12-06T12:16:49.923Z,12.70
2017-12-06T12:17:49.945Z,13.30
2017-12-06T12:18:49.960Z,12.70
2017-12-06T12:19:49.978Z,13.10
2017-12-06T12:20:49.998Z,12.10
2017-12-06T12:21:50.015Z,12.10
2017-12-06T12:22:50.035Z,12.60
2017-12-06T12:23:50.051Z,12.60
2017-12-06T12:24:50.075Z,11.70
2017-12-06T12:25:50.088Z,13.40
2017-12-06T12:26:50.107Z,12.90
2017-12-06T12:27:50.124Z,12.60
2017-12-06T12:28:50.142Z,12.50
2017-12-06T12:29:50.162Z,12.50
2017-12-06T12:30:50.181Z,12.90
2017-12-06T12:31:50.199Z,12.60
2017-12-06T12:32:50.217Z,14.70
2017-12-06T12:33:50.236Z,14.40
2017-12-06T12:34:50.254Z,12.30
2017-12-06T12:35:50.271Z,12.00
2017-12-06T12:36:50.391Z,12.30
2017-12-06T12:37:50.308Z,12.40
2017-12-06T12:38:50.328Z,13.10
2017-12-06T12:39:50.345Z,11.80
2017-12-06T12:40:50.364Z,12.30
2017-12-06T12:41:50.382Z,12.60
2017-12-06T12:42:50.402Z,13.10
2017-12-06T12:43:50.420Z,12.20
2017-12-06T12:44:50.439Z,11.90
2017-12-06T12:45:50.458Z,12.50
2017-12-06T12:46:50.476Z,13.00
2017-12-06T12:47:50.493Z,12.80
2017-12-06T12:48:50.513Z,11.60
2017-12-06T12:49:50.530Z,13.40
2017-12-06T12:50:50.551Z,13.00
2017-12-06T12:51:50.568Z,12.80
2017-12-06T12:52:50.586Z,11.80